Time;durP1;ratioP1;P1;durP2;ratioP2;P2;SDS_P1;SDS_P2;PMS_P1;PMS_P2;Temp;Humidity;BMP_temperature;BMP_pressure;BME280_temperature;BME280_humidity;BME280_pressure;Samples;Min_cycle;Max_cycle;Signal;HPM_P1;HPM_P2
2019/09/09 00:00:08;;;;;;;4.85;4.450001;;;;;;;9.53;100;95028.08;;;;
2019/09/09 00:01:12;;;;;;;4.85;4.450001;;;;;;;9.53;100;95028.08;;;;
2019/09/09 00:02:13;;;;;;;4.55;4.15;;;;;;;9.53;100;95042.49;;;;
2019/09/09 00:03:14;;;;;;;4.55;4.15;;;;;;;9.53;100;95042.49;;;;
2019/09/09 00:04:15;;;;;;;4.55;4.15;;;;;;;9.53;100;95042.49;;;;
2019/09/09 00:05:17;;;;;;;4.55;4.15;;;;;;;9.53;100;95042.49;;;;
2019/09/09 00:06:18;;;;;;;4.55;4.15;;;;;;;9.53;100;95042.49;;;;
2019/09/09 00:07:19;;;;;;;4.55;4.15;;;;;;;9.53;100;95042.49;;;;
2019/09/09 00:08:20;;;;;;;4.55;4.15;;;;;;;9.53;100;95042.49;;;;
2019/09/09 00:09:22;;;;;;;4.55;4.15;;;;;;;9.53;100;95042.49;;;;
2019/09/09 00:10:23;;;;;;;4.55;4.15;;;;;;;9.53;100;95042.49;;;;
2019/09/09 00:11:25;;;;;;;4.55;4.15;;;;;;;9.53;100;95042.49;;;;
2019/09/09 00:12:26;;;;;;;4.6;4.2;;;;;;;9.59;100;95067.95;;;;
2019/09/09 00:13:27;;;;;;;4.6;4.2;;;;;;;9.59;100;95067.95;;;;
2019/09/09 00:14:28;;;;;;;4.6;4.2;;;;;;;9.59;100;95067.95;;;;
2019/09/09 00:15:30;;;;;;;4.6;4.2;;;;;;;9.59;100;95067.95;;;;
2019/09/09 00:16:31;;;;;;;4.6;4.2;;;;;;;9.59;100;95067.95;;;;
2019/09/09 00:17:32;;;;;;;4.6;4.2;;;;;;;9.59;100;95067.95;;;;
2019/09/09 00:18:34;;;;;;;4.6;4.2;;;;;;;9.59;100;95067.95;;;;
2019/09/09 00:19:35;;;;;;;4.6;4.2;;;;;;;9.59;100;95067.95;;;;
2019/09/09 00:20:36;;;;;;;4.6;4.2;;;;;;;9.59;100;95067.95;;;;
2019/09/09 00:21:38;;;;;;;4.6;4.2;;;;;;;9.59;100;95067.95;;;;
2019/09/09 00:22:39;;;;;;;4.100001;3.7;;;;;;;9.61;100;95083.37;;;;
2019/09/09 00:23:40;;;;;;;4.100001;3.7;;;;;;;9.61;100;95083.37;;;;
2019/09/09 00:24:41;;;;;;;4.100001;3.7;;;;;;;9.61;100;95083.37;;;;
2019/09/09 00:25:42;;;;;;;4.100001;3.7;;;;;;;9.61;100;95083.37;;;;
2019/09/09 00:26:45;;;;;;;4.100001;3.7;;;;;;;9.61;100;95083.37;;;;
2019/09/09 00:27:46;;;;;;;4.100001;3.7;;;;;;;9.61;100;95083.37;;;;
2019/09/09 00:28:47;;;;;;;4.100001;3.7;;;;;;;9.61;100;95083.37;;;;
2019/09/09 00:29:49;;;;;;;4.100001;3.7;;;;;;;9.61;100;95083.37;;;;
2019/09/09 00:30:50;;;;;;;4.100001;3.7;;;;;;;9.61;100;95083.37;;;;
2019/09/09 00:31:51;;;;;;;4.100001;3.7;;;;;;;9.61;100;95083.37;;;;
2019/09/09 00:32:52;;;;;;;4.100001;3.7;;;;;;;9.61;100;95083.37;;;;
2019/09/09 00:33:53;;;;;;;3.85;3.55;;;;;;;9.72;100;95080.38;;;;
2019/09/09 00:34:54;;;;;;;3.85;3.55;;;;;;;9.72;100;95080.38;;;;
2019/09/09 00:35:56;;;;;;;3.85;3.55;;;;;;;9.72;100;95080.38;;;;
2019/09/09 00:36:57;;;;;;;3.85;3.55;;;;;;;9.72;100;95080.38;;;;
2019/09/09 00:37:58;;;;;;;3.85;3.55;;;;;;;9.72;100;95080.38;;;;
2019/09/09 00:38:59;;;;;;;3.85;3.55;;;;;;;9.72;100;95080.38;;;;
2019/09/09 00:40:00;;;;;;;3.85;3.55;;;;;;;9.72;100;95080.38;;;;
2019/09/09 00:41:01;;;;;;;3.85;3.55;;;;;;;9.72;100;95080.38;;;;
2019/09/09 00:42:03;;;;;;;3.85;3.55;;;;;;;9.72;100;95080.38;;;;
2019/09/09 00:43:04;;;;;;;3.85;3.55;;;;;;;9.72;100;95080.38;;;;
2019/09/09 00:44:05;;;;;;;4;3.6;;;;;;;9.75;100;95042.17;;;;
2019/09/09 00:45:07;;;;;;;4;3.6;;;;;;;9.75;100;95042.17;;;;
2019/09/09 00:46:09;;;;;;;4;3.6;;;;;;;9.75;100;95042.17;;;;
2019/09/09 00:47:10;;;;;;;4;3.6;;;;;;;9.75;100;95042.17;;;;
2019/09/09 00:48:11;;;;;;;4;3.6;;;;;;;9.75;100;95042.17;;;;
2019/09/09 00:49:13;;;;;;;4;3.6;;;;;;;9.75;100;95042.17;;;;
2019/09/09 00:50:14;;;;;;;4;3.6;;;;;;;9.75;100;95042.17;;;;
2019/09/09 00:51:17;;;;;;;4;3.6;;;;;;;9.75;100;95042.17;;;;
2019/09/09 00:52:18;;;;;;;4;3.6;;;;;;;9.75;100;95042.17;;;;
2019/09/09 00:53:19;;;;;;;4;3.6;;;;;;;9.75;100;95042.17;;;;
2019/09/09 00:54:20;;;;;;;4;3.6;;;;;;;9.75;100;95042.17;;;;
2019/09/09 00:55:22;;;;;;;3.95;3.55;;;;;;;9.83;100;95044.9;;;;
2019/09/09 00:56:24;;;;;;;3.95;3.55;;;;;;;9.83;100;95044.9;;;;
2019/09/09 00:57:25;;;;;;;3.95;3.55;;;;;;;9.83;100;95044.9;;;;
2019/09/09 00:58:26;;;;;;;3.95;3.55;;;;;;;9.83;100;95044.9;;;;
2019/09/09 00:59:27;;;;;;;3.95;3.55;;;;;;;9.83;100;95044.9;;;;
2019/09/09 01:00:28;;;;;;;3.95;3.55;;;;;;;9.83;100;95044.9;;;;
2019/09/09 01:01:32;;;;;;;3.95;3.55;;;;;;;9.83;100;95044.9;;;;
2019/09/09 01:02:33;;;;;;;3.95;3.55;;;;;;;9.83;100;95044.9;;;;
2019/09/09 01:03:34;;;;;;;3.95;3.55;;;;;;;9.83;100;95044.9;;;;
2019/09/09 01:04:36;;;;;;;3.95;3.55;;;;;;;9.83;100;95044.9;;;;
2019/09/09 01:05:37;;;;;;;5.25;4.55;;;;;;;9.86;100;95051.99;;;;
2019/09/09 01:06:39;;;;;;;5.25;4.55;;;;;;;9.86;100;95051.99;;;;
2019/09/09 01:07:40;;;;;;;5.25;4.55;;;;;;;9.86;100;95051.99;;;;
2019/09/09 01:08:41;;;;;;;5.25;4.55;;;;;;;9.86;100;95051.99;;;;
2019/09/09 01:09:42;;;;;;;5.25;4.55;;;;;;;9.86;100;95051.99;;;;
2019/09/09 01:10:43;;;;;;;5.25;4.55;;;;;;;9.86;100;95051.99;;;;
2019/09/09 01:11:45;;;;;;;5.25;4.55;;;;;;;9.86;100;95051.99;;;;
2019/09/09 01:12:47;;;;;;;5.25;4.55;;;;;;;9.86;100;95051.99;;;;
2019/09/09 01:13:48;;;;;;;5.25;4.55;;;;;;;9.86;100;95051.99;;;;
2019/09/09 01:14:49;;;;;;;5.25;4.55;;;;;;;9.86;100;95051.99;;;;
2019/09/09 01:15:50;;;;;;;4.5;4.100001;;;;;;;9.93;100;95046.88;;;;
2019/09/09 01:16:52;;;;;;;4.5;4.100001;;;;;;;9.93;100;95046.88;;;;
2019/09/09 01:17:53;;;;;;;4.5;4.100001;;;;;;;9.93;100;95046.88;;;;
2019/09/09 01:18:54;;;;;;;4.5;4.100001;;;;;;;9.93;100;95046.88;;;;
2019/09/09 01:19:55;;;;;;;4.5;4.100001;;;;;;;9.93;100;95046.88;;;;
2019/09/09 01:20:56;;;;;;;4.5;4.100001;;;;;;;9.93;100;95046.88;;;;
2019/09/09 01:21:58;;;;;;;4.5;4.100001;;;;;;;9.93;100;95046.88;;;;
2019/09/09 01:22:59;;;;;;;4.5;4.100001;;;;;;;9.93;100;95046.88;;;;
2019/09/09 01:24:00;;;;;;;4.5;4.100001;;;;;;;9.93;100;95046.88;;;;
2019/09/09 01:25:01;;;;;;;4.5;4.100001;;;;;;;9.93;100;95046.88;;;;
2019/09/09 01:26:03;;;;;;;4.5;4.100001;;;;;;;9.93;100;95046.88;;;;
2019/09/09 01:27:04;;;;;;;5.199999;4.699999;;;;;;;9.95;100;95045.7;;;;
2019/09/09 01:28:06;;;;;;;5.199999;4.699999;;;;;;;9.95;100;95045.7;;;;
2019/09/09 01:29:07;;;;;;;5.199999;4.699999;;;;;;;9.95;100;95045.7;;;;
2019/09/09 01:30:08;;;;;;;5.199999;4.699999;;;;;;;9.95;100;95045.7;;;;
2019/09/09 01:31:11;;;;;;;5.199999;4.699999;;;;;;;9.95;100;95045.7;;;;
2019/09/09 01:32:12;;;;;;;5.199999;4.699999;;;;;;;9.95;100;95045.7;;;;
2019/09/09 01:33:13;;;;;;;5.199999;4.699999;;;;;;;9.95;100;95045.7;;;;
2019/09/09 01:34:14;;;;;;;5.199999;4.699999;;;;;;;9.95;100;95045.7;;;;
2019/09/09 01:35:16;;;;;;;5.199999;4.699999;;;;;;;9.95;100;95045.7;;;;
2019/09/09 01:36:19;;;;;;;5.199999;4.699999;;;;;;;9.95;100;95045.7;;;;
2019/09/09 01:37:20;;;;;;;4.35;3.75;;;;;;;9.99;100;95028.81;;;;
2019/09/09 01:38:22;;;;;;;4.35;3.75;;;;;;;9.99;100;95028.81;;;;
2019/09/09 01:39:23;;;;;;;4.35;3.75;;;;;;;9.99;100;95028.81;;;;
2019/09/09 01:40:24;;;;;;;4.35;3.75;;;;;;;9.99;100;95028.81;;;;
2019/09/09 01:41:26;;;;;;;4.35;3.75;;;;;;;9.99;100;95028.81;;;;
2019/09/09 01:42:27;;;;;;;4.35;3.75;;;;;;;9.99;100;95028.81;;;;
2019/09/09 01:43:28;;;;;;;4.35;3.75;;;;;;;9.99;100;95028.81;;;;
2019/09/09 01:44:30;;;;;;;4.35;3.75;;;;;;;9.99;100;95028.81;;;;
2019/09/09 01:45:31;;;;;;;4.35;3.75;;;;;;;9.99;100;95028.81;;;;
2019/09/09 01:46:33;;;;;;;4.35;3.75;;;;;;;9.99;100;95028.81;;;;
2019/09/09 01:47:34;;;;;;;4.25;3.85;;;;;;;9.95;100;95022.77;;;;
2019/09/09 01:48:35;;;;;;;4.25;3.85;;;;;;;9.95;100;95022.77;;;;
2019/09/09 01:49:37;;;;;;;4.25;3.85;;;;;;;9.95;100;95022.77;;;;
2019/09/09 01:50:38;;;;;;;4.25;3.85;;;;;;;9.95;100;95022.77;;;;
2019/09/09 01:51:41;;;;;;;4.25;3.85;;;;;;;9.95;100;95022.77;;;;
2019/09/09 01:52:43;;;;;;;4.25;3.85;;;;;;;9.95;100;95022.77;;;;
2019/09/09 01:53:44;;;;;;;4.25;3.85;;;;;;;9.95;100;95022.77;;;;
2019/09/09 01:54:45;;;;;;;4.25;3.85;;;;;;;9.95;100;95022.77;;;;
2019/09/09 01:55:46;;;;;;;4.25;3.85;;;;;;;9.95;100;95022.77;;;;
2019/09/09 01:56:47;;;;;;;4.25;3.85;;;;;;;9.95;100;95022.77;;;;
2019/09/09 01:57:49;;;;;;;4.25;3.85;;;;;;;9.95;100;95022.77;;;;
2019/09/09 01:58:50;;;;;;;4.1;3.7;;;;;;;9.98;100;95024.6;;;;
2019/09/09 01:59:51;;;;;;;4.1;3.7;;;;;;;9.98;100;95024.6;;;;
2019/09/09 02:00:53;;;;;;;4.1;3.7;;;;;;;9.98;100;95024.6;;;;
2019/09/09 02:01:55;;;;;;;4.1;3.7;;;;;;;9.98;100;95024.6;;;;
2019/09/09 02:02:56;;;;;;;4.1;3.7;;;;;;;9.98;100;95024.6;;;;
2019/09/09 02:03:57;;;;;;;4.1;3.7;;;;;;;9.98;100;95024.6;;;;
2019/09/09 02:04:59;;;;;;;4.1;3.7;;;;;;;9.98;100;95024.6;;;;
2019/09/09 02:06:00;;;;;;;4.1;3.7;;;;;;;9.98;100;95024.6;;;;
2019/09/09 02:07:01;;;;;;;4.1;3.7;;;;;;;9.98;100;95024.6;;;;
2019/09/09 02:08:03;;;;;;;4.1;3.7;;;;;;;9.98;100;95024.6;;;;
2019/09/09 02:09:04;;;;;;;3.15;2.85;;;;;;;9.95;100;95009.29;;;;
2019/09/09 02:10:06;;;;;;;3.15;2.85;;;;;;;9.95;100;95009.29;;;;
2019/09/09 02:11:12;;;;;;;3.15;2.85;;;;;;;9.95;100;95009.29;;;;
2019/09/09 02:12:13;;;;;;;3.15;2.85;;;;;;;9.95;100;95009.29;;;;
2019/09/09 02:13:14;;;;;;;3.15;2.85;;;;;;;9.95;100;95009.29;;;;
2019/09/09 02:14:15;;;;;;;3.15;2.85;;;;;;;9.95;100;95009.29;;;;
2019/09/09 02:15:16;;;;;;;3.15;2.85;;;;;;;9.95;100;95009.29;;;;
2019/09/09 02:16:20;;;;;;;3.15;2.85;;;;;;;9.95;100;95009.29;;;;
2019/09/09 02:17:21;;;;;;;3.15;2.85;;;;;;;9.95;100;95009.29;;;;
2019/09/09 02:18:22;;;;;;;3.15;2.85;;;;;;;9.95;100;95009.29;;;;
2019/09/09 02:19:24;;;;;;;2.4;2.2;;;;;;;9.96;100;95001.92;;;;
2019/09/09 02:20:25;;;;;;;2.4;2.2;;;;;;;9.96;100;95001.92;;;;
2019/09/09 02:21:29;;;;;;;2.4;2.2;;;;;;;9.96;100;95001.92;;;;
2019/09/09 02:22:30;;;;;;;2.4;2.2;;;;;;;9.96;100;95001.92;;;;
2019/09/09 02:23:32;;;;;;;2.4;2.2;;;;;;;9.96;100;95001.92;;;;
2019/09/09 02:24:33;;;;;;;2.4;2.2;;;;;;;9.96;100;95001.92;;;;
2019/09/09 02:25:34;;;;;;;2.4;2.2;;;;;;;9.96;100;95001.92;;;;
2019/09/09 02:26:36;;;;;;;2.4;2.2;;;;;;;9.96;100;95001.92;;;;
2019/09/09 02:27:37;;;;;;;2.4;2.2;;;;;;;9.96;100;95001.92;;;;
2019/09/09 02:28:38;;;;;;;2.4;2.2;;;;;;;9.96;100;95001.92;;;;
2019/09/09 02:29:39;;;;;;;2.4;2.2;;;;;;;9.96;100;95001.92;;;;
2019/09/09 02:30:40;;;;;;;2.2;2;;;;;;;9.89;100;94992.74;;;;
2019/09/09 02:31:42;;;;;;;2.2;2;;;;;;;9.89;100;94992.74;;;;
2019/09/09 02:32:43;;;;;;;2.2;2;;;;;;;9.89;100;94992.74;;;;
2019/09/09 02:33:44;;;;;;;2.2;2;;;;;;;9.89;100;94992.74;;;;
2019/09/09 02:34:46;;;;;;;2.2;2;;;;;;;9.89;100;94992.74;;;;
2019/09/09 02:35:47;;;;;;;2.2;2;;;;;;;9.89;100;94992.74;;;;
2019/09/09 02:36:48;;;;;;;2.2;2;;;;;;;9.89;100;94992.74;;;;
2019/09/09 02:37:49;;;;;;;2.2;2;;;;;;;9.89;100;94992.74;;;;
2019/09/09 02:38:50;;;;;;;2.2;2;;;;;;;9.89;100;94992.74;;;;
2019/09/09 02:39:52;;;;;;;2.2;2;;;;;;;9.89;100;94992.74;;;;
2019/09/09 02:40:53;;;;;;;1.9;1.7;;;;;;;9.87;100;94996.61;;;;
2019/09/09 02:41:54;;;;;;;1.9;1.7;;;;;;;9.87;100;94996.61;;;;
2019/09/09 02:42:55;;;;;;;1.9;1.7;;;;;;;9.87;100;94996.61;;;;
2019/09/09 02:43:56;;;;;;;1.9;1.7;;;;;;;9.87;100;94996.61;;;;
2019/09/09 02:44:57;;;;;;;1.9;1.7;;;;;;;9.87;100;94996.61;;;;
2019/09/09 02:45:58;;;;;;;1.9;1.7;;;;;;;9.87;100;94996.61;;;;
2019/09/09 02:47:00;;;;;;;1.9;1.7;;;;;;;9.87;100;94996.61;;;;
2019/09/09 02:48:01;;;;;;;1.9;1.7;;;;;;;9.87;100;94996.61;;;;
2019/09/09 02:49:02;;;;;;;1.9;1.7;;;;;;;9.87;100;94996.61;;;;
2019/09/09 02:50:03;;;;;;;1.9;1.7;;;;;;;9.87;100;94996.61;;;;
2019/09/09 02:51:05;;;;;;;1.9;1.7;;;;;;;9.87;100;94996.61;;;;
2019/09/09 02:52:06;;;;;;;1.6;1.5;;;;;;;9.8;100;94992.27;;;;
2019/09/09 02:53:07;;;;;;;1.6;1.5;;;;;;;9.8;100;94992.27;;;;
2019/09/09 02:54:09;;;;;;;1.6;1.5;;;;;;;9.8;100;94992.27;;;;
2019/09/09 02:55:10;;;;;;;1.6;1.5;;;;;;;9.8;100;94992.27;;;;
2019/09/09 02:56:13;;;;;;;1.6;1.5;;;;;;;9.8;100;94992.27;;;;
2019/09/09 02:57:14;;;;;;;1.6;1.5;;;;;;;9.8;100;94992.27;;;;
2019/09/09 02:58:15;;;;;;;1.6;1.5;;;;;;;9.8;100;94992.27;;;;
2019/09/09 02:59:16;;;;;;;1.6;1.5;;;;;;;9.8;100;94992.27;;;;
2019/09/09 03:00:17;;;;;;;1.6;1.5;;;;;;;9.8;100;94992.27;;;;
2019/09/09 03:01:21;;;;;;;1.6;1.5;;;;;;;9.8;100;94992.27;;;;
2019/09/09 03:02:22;;;;;;;3.25;1.5;;;;;;;9.85;100;94999.24;;;;
2019/09/09 03:03:23;;;;;;;3.25;1.5;;;;;;;9.85;100;94999.24;;;;
2019/09/09 03:04:24;;;;;;;3.25;1.5;;;;;;;9.85;100;94999.24;;;;
2019/09/09 03:05:26;;;;;;;3.25;1.5;;;;;;;9.85;100;94999.24;;;;
2019/09/09 03:06:28;;;;;;;3.25;1.5;;;;;;;9.85;100;94999.24;;;;
2019/09/09 03:07:29;;;;;;;3.25;1.5;;;;;;;9.85;100;94999.24;;;;
2019/09/09 03:08:30;;;;;;;3.25;1.5;;;;;;;9.85;100;94999.24;;;;
2019/09/09 03:09:31;;;;;;;3.25;1.5;;;;;;;9.85;100;94999.24;;;;
2019/09/09 03:10:32;;;;;;;3.25;1.5;;;;;;;9.85;100;94999.24;;;;
2019/09/09 03:11:35;;;;;;;3.25;1.5;;;;;;;9.85;100;94999.24;;;;
2019/09/09 03:12:36;;;;;;;1.9;1.8;;;;;;;9.81;100;94989.04;;;;
2019/09/09 03:13:37;;;;;;;1.9;1.8;;;;;;;9.81;100;94989.04;;;;
2019/09/09 03:14:38;;;;;;;1.9;1.8;;;;;;;9.81;100;94989.04;;;;
2019/09/09 03:15:39;;;;;;;1.9;1.8;;;;;;;9.81;100;94989.04;;;;
2019/09/09 03:16:41;;;;;;;1.9;1.8;;;;;;;9.81;100;94989.04;;;;
2019/09/09 03:17:42;;;;;;;1.9;1.8;;;;;;;9.81;100;94989.04;;;;
2019/09/09 03:18:43;;;;;;;1.9;1.8;;;;;;;9.81;100;94989.04;;;;
2019/09/09 03:19:44;;;;;;;1.9;1.8;;;;;;;9.81;100;94989.04;;;;
2019/09/09 03:20:46;;;;;;;1.9;1.8;;;;;;;9.81;100;94989.04;;;;
2019/09/09 03:21:48;;;;;;;1.9;1.8;;;;;;;9.81;100;94989.04;;;;
2019/09/09 03:22:49;;;;;;;1.9;1.8;;;;;;;9.81;100;94989.04;;;;
2019/09/09 03:23:51;;;;;;;1.9;1.8;;;;;;;9.84;100;94994.78;;;;
2019/09/09 03:24:52;;;;;;;1.9;1.8;;;;;;;9.84;100;94994.78;;;;
2019/09/09 03:25:53;;;;;;;1.9;1.8;;;;;;;9.84;100;94994.78;;;;
2019/09/09 03:26:54;;;;;;;1.9;1.8;;;;;;;9.84;100;94994.78;;;;
2019/09/09 03:27:55;;;;;;;1.9;1.8;;;;;;;9.84;100;94994.78;;;;
2019/09/09 03:28:57;;;;;;;1.9;1.8;;;;;;;9.84;100;94994.78;;;;
2019/09/09 03:29:58;;;;;;;1.9;1.8;;;;;;;9.84;100;94994.78;;;;
2019/09/09 03:30:59;;;;;;;1.9;1.8;;;;;;;9.84;100;94994.78;;;;
2019/09/09 03:32:01;;;;;;;1.9;1.8;;;;;;;9.84;100;94994.78;;;;
2019/09/09 03:33:02;;;;;;;1.9;1.8;;;;;;;9.84;100;94994.78;;;;
2019/09/09 03:34:04;;;;;;;1.95;1.85;;;;;;;9.81;100;94996.2;;;;
2019/09/09 03:35:05;;;;;;;1.95;1.85;;;;;;;9.81;100;94996.2;;;;
2019/09/09 03:36:07;;;;;;;1.95;1.85;;;;;;;9.81;100;94996.2;;;;
2019/09/09 03:37:08;;;;;;;1.95;1.85;;;;;;;9.81;100;94996.2;;;;
2019/09/09 03:38:09;;;;;;;1.95;1.85;;;;;;;9.81;100;94996.2;;;;
2019/09/09 03:39:10;;;;;;;1.95;1.85;;;;;;;9.81;100;94996.2;;;;
2019/09/09 03:40:12;;;;;;;1.95;1.85;;;;;;;9.81;100;94996.2;;;;
2019/09/09 03:41:17;;;;;;;1.95;1.85;;;;;;;9.81;100;94996.2;;;;
2019/09/09 03:42:18;;;;;;;1.95;1.85;;;;;;;9.81;100;94996.2;;;;
2019/09/09 03:43:19;;;;;;;1.95;1.85;;;;;;;9.81;100;94996.2;;;;
2019/09/09 03:44:20;;;;;;;2.45;2.25;;;;;;;9.86;100;94995.5;;;;
2019/09/09 03:45:21;;;;;;;2.45;2.25;;;;;;;9.86;100;94995.5;;;;
2019/09/09 03:46:23;;;;;;;2.45;2.25;;;;;;;9.86;100;94995.5;;;;
2019/09/09 03:47:25;;;;;;;2.45;2.25;;;;;;;9.86;100;94995.5;;;;
2019/09/09 03:48:36;;;;;;;2.45;2.25;;;;;;;9.86;100;94995.5;;;;
2019/09/09 03:49:37;;;;;;;2.45;2.25;;;;;;;9.86;100;94995.5;;;;
2019/09/09 03:50:38;;;;;;;2.45;2.25;;;;;;;9.86;100;94995.5;;;;
2019/09/09 03:51:40;;;;;;;2.45;2.25;;;;;;;9.86;100;94995.5;;;;
2019/09/09 03:52:42;;;;;;;2.45;2.25;;;;;;;9.86;100;94995.5;;;;
2019/09/09 03:53:43;;;;;;;2.45;2.25;;;;;;;9.86;100;94995.5;;;;
2019/09/09 03:54:44;;;;;;;2.45;2.25;;;;;;;9.86;100;94995.5;;;;
2019/09/09 03:55:45;;;;;;;2.7;2.5;;;;;;;9.84;100;94989.9;;;;
2019/09/09 03:56:47;;;;;;;2.7;2.5;;;;;;;9.84;100;94989.9;;;;
2019/09/09 03:57:48;;;;;;;2.7;2.5;;;;;;;9.84;100;94989.9;;;;
2019/09/09 03:58:49;;;;;;;2.7;2.5;;;;;;;9.84;100;94989.9;;;;
2019/09/09 03:59:50;;;;;;;2.7;2.5;;;;;;;9.84;100;94989.9;;;;
2019/09/09 04:00:51;;;;;;;2.7;2.5;;;;;;;9.84;100;94989.9;;;;
2019/09/09 04:01:53;;;;;;;2.7;2.5;;;;;;;9.84;100;94989.9;;;;
2019/09/09 04:02:54;;;;;;;2.7;2.5;;;;;;;9.84;100;94989.9;;;;
2019/09/09 04:03:55;;;;;;;2.7;2.5;;;;;;;9.84;100;94989.9;;;;
2019/09/09 04:04:56;;;;;;;2.7;2.5;;;;;;;9.84;100;94989.9;;;;
2019/09/09 04:05:58;;;;;;;3.2;2.900001;;;;;;;9.88;100;94992.42;;;;
2019/09/09 04:06:59;;;;;;;3.2;2.900001;;;;;;;9.88;100;94992.42;;;;
2019/09/09 04:08:00;;;;;;;3.2;2.900001;;;;;;;9.88;100;94992.42;;;;
2019/09/09 04:09:01;;;;;;;3.2;2.900001;;;;;;;9.88;100;94992.42;;;;
2019/09/09 04:10:04;;;;;;;3.2;2.900001;;;;;;;9.88;100;94992.42;;;;
2019/09/09 04:11:06;;;;;;;3.2;2.900001;;;;;;;9.88;100;94992.42;;;;
2019/09/09 04:12:07;;;;;;;3.2;2.900001;;;;;;;9.88;100;94992.42;;;;
2019/09/09 04:13:08;;;;;;;3.2;2.900001;;;;;;;9.88;100;94992.42;;;;
2019/09/09 04:14:09;;;;;;;3.2;2.900001;;;;;;;9.88;100;94992.42;;;;
2019/09/09 04:15:11;;;;;;;3.2;2.900001;;;;;;;9.88;100;94992.42;;;;
2019/09/09 04:16:15;;;;;;;3.7;3.400001;;;;;;;9.84;100;94996.26;;;;
2019/09/09 04:17:16;;;;;;;3.7;3.400001;;;;;;;9.84;100;94996.26;;;;
2019/09/09 04:18:17;;;;;;;3.7;3.400001;;;;;;;9.84;100;94996.26;;;;
2019/09/09 04:19:19;;;;;;;3.7;3.400001;;;;;;;9.84;100;94996.26;;;;
2019/09/09 04:20:20;;;;;;;3.7;3.400001;;;;;;;9.84;100;94996.26;;;;
2019/09/09 04:21:21;;;;;;;3.7;3.400001;;;;;;;9.84;100;94996.26;;;;
2019/09/09 04:22:23;;;;;;;3.7;3.400001;;;;;;;9.84;100;94996.26;;;;
2019/09/09 04:23:24;;;;;;;3.7;3.400001;;;;;;;9.84;100;94996.26;;;;
2019/09/09 04:24:25;;;;;;;3.7;3.400001;;;;;;;9.84;100;94996.26;;;;
2019/09/09 04:25:26;;;;;;;3.7;3.400001;;;;;;;9.84;100;94996.26;;;;
2019/09/09 04:26:28;;;;;;;3.7;3.400001;;;;;;;9.84;100;94996.26;;;;
2019/09/09 04:27:29;;;;;;;4.75;3.8;;;;;;;9.89;100;94993.15;;;;
2019/09/09 04:28:30;;;;;;;4.75;3.8;;;;;;;9.89;100;94993.15;;;;
2019/09/09 04:29:31;;;;;;;4.75;3.8;;;;;;;9.89;100;94993.15;;;;
2019/09/09 04:30:32;;;;;;;4.75;3.8;;;;;;;9.89;100;94993.15;;;;
2019/09/09 04:31:35;;;;;;;4.75;3.8;;;;;;;9.89;100;94993.15;;;;
2019/09/09 04:32:36;;;;;;;4.75;3.8;;;;;;;9.89;100;94993.15;;;;
2019/09/09 04:33:37;;;;;;;4.75;3.8;;;;;;;9.89;100;94993.15;;;;
2019/09/09 04:34:38;;;;;;;4.75;3.8;;;;;;;9.89;100;94993.15;;;;
2019/09/09 04:35:39;;;;;;;4.75;3.8;;;;;;;9.89;100;94993.15;;;;
2019/09/09 04:36:41;;;;;;;4.75;3.8;;;;;;;9.89;100;94993.15;;;;
2019/09/09 04:37:42;;;;;;;4.45;4.05;;;;;;;9.89;100;94991.38;;;;
2019/09/09 04:38:43;;;;;;;4.45;4.05;;;;;;;9.89;100;94991.38;;;;
2019/09/09 04:39:45;;;;;;;4.45;4.05;;;;;;;9.89;100;94991.38;;;;
2019/09/09 04:40:46;;;;;;;4.45;4.05;;;;;;;9.89;100;94991.38;;;;
2019/09/09 04:41:47;;;;;;;4.45;4.05;;;;;;;9.89;100;94991.38;;;;
2019/09/09 04:42:48;;;;;;;4.45;4.05;;;;;;;9.89;100;94991.38;;;;
2019/09/09 04:43:49;;;;;;;4.45;4.05;;;;;;;9.89;100;94991.38;;;;
2019/09/09 04:44:50;;;;;;;4.45;4.05;;;;;;;9.89;100;94991.38;;;;
2019/09/09 04:45:51;;;;;;;4.45;4.05;;;;;;;9.89;100;94991.38;;;;
2019/09/09 04:46:53;;;;;;;4.45;4.05;;;;;;;9.89;100;94991.38;;;;
2019/09/09 04:47:54;;;;;;;6.1;4.799999;;;;;;;9.92;100;94989.03;;;;
2019/09/09 04:48:55;;;;;;;6.1;4.799999;;;;;;;9.92;100;94989.03;;;;
2019/09/09 04:49:56;;;;;;;6.1;4.799999;;;;;;;9.92;100;94989.03;;;;
2019/09/09 04:50:57;;;;;;;6.1;4.799999;;;;;;;9.92;100;94989.03;;;;
2019/09/09 04:51:58;;;;;;;6.1;4.799999;;;;;;;9.92;100;94989.03;;;;
2019/09/09 04:52:59;;;;;;;6.1;4.799999;;;;;;;9.92;100;94989.03;;;;
2019/09/09 04:54:01;;;;;;;6.1;4.799999;;;;;;;9.92;100;94989.03;;;;
2019/09/09 04:55:02;;;;;;;6.1;4.799999;;;;;;;9.92;100;94989.03;;;;
2019/09/09 04:56:04;;;;;;;6.1;4.799999;;;;;;;9.92;100;94989.03;;;;
2019/09/09 04:57:05;;;;;;;6.1;4.799999;;;;;;;9.92;100;94989.03;;;;
2019/09/09 04:58:06;;;;;;;6.1;4.799999;;;;;;;9.92;100;94989.03;;;;
2019/09/09 04:59:08;;;;;;;6;5.5;;;;;;;9.92;100;94986.44;;;;
2019/09/09 05:00:09;;;;;;;6;5.5;;;;;;;9.92;100;94986.44;;;;
2019/09/09 05:01:10;;;;;;;6;5.5;;;;;;;9.92;100;94986.44;;;;
2019/09/09 05:02:12;;;;;;;6;5.5;;;;;;;9.92;100;94986.44;;;;
2019/09/09 05:03:13;;;;;;;6;5.5;;;;;;;9.92;100;94986.44;;;;
2019/09/09 05:04:14;;;;;;;6;5.5;;;;;;;9.92;100;94986.44;;;;
2019/09/09 05:05:15;;;;;;;6;5.5;;;;;;;9.92;100;94986.44;;;;
2019/09/09 05:06:18;;;;;;;6;5.5;;;;;;;9.92;100;94986.44;;;;
2019/09/09 05:07:19;;;;;;;6;5.5;;;;;;;9.92;100;94986.44;;;;
2019/09/09 05:08:20;;;;;;;6;5.5;;;;;;;9.92;100;94986.44;;;;
2019/09/09 05:09:21;;;;;;;6.55;5.849999;;;;;;;10;100;94995.37;;;;
2019/09/09 05:10:23;;;;;;;6.55;5.849999;;;;;;;10;100;94995.37;;;;
2019/09/09 05:11:25;;;;;;;6.55;5.849999;;;;;;;10;100;94995.37;;;;
2019/09/09 05:12:26;;;;;;;6.55;5.849999;;;;;;;10;100;94995.37;;;;
2019/09/09 05:13:27;;;;;;;6.55;5.849999;;;;;;;10;100;94995.37;;;;
2019/09/09 05:14:28;;;;;;;6.55;5.849999;;;;;;;10;100;94995.37;;;;
2019/09/09 05:15:29;;;;;;;6.55;5.849999;;;;;;;10;100;94995.37;;;;
2019/09/09 05:16:31;;;;;;;6.55;5.849999;;;;;;;10;100;94995.37;;;;
2019/09/09 05:17:32;;;;;;;6.55;5.849999;;;;;;;10;100;94995.37;;;;
2019/09/09 05:18:33;;;;;;;6.55;5.849999;;;;;;;10;100;94995.37;;;;
2019/09/09 05:19:34;;;;;;;6.55;5.849999;;;;;;;10;100;94995.37;;;;
2019/09/09 05:20:35;;;;;;;8.299998;6.799999;;;;;;;10.02;100;94995.97;;;;
2019/09/09 05:21:36;;;;;;;8.299998;6.799999;;;;;;;10.02;100;94995.97;;;;
2019/09/09 05:22:38;;;;;;;8.299998;6.799999;;;;;;;10.02;100;94995.97;;;;
2019/09/09 05:23:39;;;;;;;8.299998;6.799999;;;;;;;10.02;100;94995.97;;;;
2019/09/09 05:24:40;;;;;;;8.299998;6.799999;;;;;;;10.02;100;94995.97;;;;
2019/09/09 05:25:41;;;;;;;8.299998;6.799999;;;;;;;10.02;100;94995.97;;;;
2019/09/09 05:26:43;;;;;;;8.299998;6.799999;;;;;;;10.02;100;94995.97;;;;
2019/09/09 05:27:44;;;;;;;8.299998;6.799999;;;;;;;10.02;100;94995.97;;;;
2019/09/09 05:28:45;;;;;;;8.299998;6.799999;;;;;;;10.02;100;94995.97;;;;
2019/09/09 05:29:46;;;;;;;8.299998;6.799999;;;;;;;10.02;100;94995.97;;;;
2019/09/09 05:30:47;;;;;;;7.8;7.1;;;;;;;10.12;100;95002.55;;;;
2019/09/09 05:31:51;;;;;;;7.8;7.1;;;;;;;10.12;100;95002.55;;;;
2019/09/09 05:32:52;;;;;;;7.8;7.1;;;;;;;10.12;100;95002.55;;;;
2019/09/09 05:33:54;;;;;;;7.8;7.1;;;;;;;10.12;100;95002.55;;;;
2019/09/09 05:34:55;;;;;;;7.8;7.1;;;;;;;10.12;100;95002.55;;;;
2019/09/09 05:35:56;;;;;;;7.8;7.1;;;;;;;10.12;100;95002.55;;;;
2019/09/09 05:36:57;;;;;;;7.8;7.1;;;;;;;10.12;100;95002.55;;;;
2019/09/09 05:37:58;;;;;;;7.8;7.1;;;;;;;10.12;100;95002.55;;;;
2019/09/09 05:38:59;;;;;;;7.8;7.1;;;;;;;10.12;100;95002.55;;;;
2019/09/09 05:40:01;;;;;;;7.8;7.1;;;;;;;10.12;100;95002.55;;;;
2019/09/09 05:41:03;;;;;;;9.6;8.25;;;;;;;10.12;100;95002.55;;;;
2019/09/09 05:42:04;;;;;;;9.6;8.25;;;;;;;10.12;100;95002.55;;;;
2019/09/09 05:43:05;;;;;;;9.6;8.25;;;;;;;10.12;100;95002.55;;;;
2019/09/09 05:44:07;;;;;;;9.6;8.25;;;;;;;10.12;100;95002.55;;;;
2019/09/09 05:45:08;;;;;;;9.6;8.25;;;;;;;10.12;100;95002.55;;;;
2019/09/09 05:46:09;;;;;;;9.6;8.25;;;;;;;10.12;100;95002.55;;;;
2019/09/09 05:47:11;;;;;;;9.6;8.25;;;;;;;10.12;100;95002.55;;;;
2019/09/09 05:48:12;;;;;;;9.6;8.25;;;;;;;10.12;100;95002.55;;;;
2019/09/09 05:49:13;;;;;;;9.6;8.25;;;;;;;10.12;100;95002.55;;;;
2019/09/09 05:50:14;;;;;;;9.6;8.25;;;;;;;10.12;100;95002.55;;;;
2019/09/09 05:51:19;;;;;;;9.6;8.25;;;;;;;10.12;100;95002.55;;;;
2019/09/09 05:52:20;;;;;;;9.400002;8.499998;;;;;;;10.21;100;95006.09;;;;
2019/09/09 05:53:21;;;;;;;9.400002;8.499998;;;;;;;10.21;100;95006.09;;;;
2019/09/09 05:54:22;;;;;;;9.400002;8.499998;;;;;;;10.21;100;95006.09;;;;
2019/09/09 05:55:23;;;;;;;9.400002;8.499998;;;;;;;10.21;100;95006.09;;;;
2019/09/09 05:56:25;;;;;;;9.400002;8.499998;;;;;;;10.21;100;95006.09;;;;
2019/09/09 05:57:27;;;;;;;9.400002;8.499998;;;;;;;10.21;100;95006.09;;;;
2019/09/09 05:58:28;;;;;;;9.400002;8.499998;;;;;;;10.21;100;95006.09;;;;
2019/09/09 05:59:29;;;;;;;9.400002;8.499998;;;;;;;10.21;100;95006.09;;;;
2019/09/09 06:00:30;;;;;;;9.400002;8.499998;;;;;;;10.21;100;95006.09;;;;
2019/09/09 06:01:32;;;;;;;9.400002;8.499998;;;;;;;10.21;100;95006.09;;;;
2019/09/09 06:02:34;;;;;;;9.8;8.8;;;;;;;10.22;100;95013.65;;;;
2019/09/09 06:03:35;;;;;;;9.8;8.8;;;;;;;10.22;100;95013.65;;;;
2019/09/09 06:04:36;;;;;;;9.8;8.8;;;;;;;10.22;100;95013.65;;;;
2019/09/09 06:05:37;;;;;;;9.8;8.8;;;;;;;10.22;100;95013.65;;;;
2019/09/09 06:06:39;;;;;;;9.8;8.8;;;;;;;10.22;100;95013.65;;;;
2019/09/09 06:07:40;;;;;;;9.8;8.8;;;;;;;10.22;100;95013.65;;;;
2019/09/09 06:08:41;;;;;;;9.8;8.8;;;;;;;10.22;100;95013.65;;;;
2019/09/09 06:09:42;;;;;;;9.8;8.8;;;;;;;10.22;100;95013.65;;;;
2019/09/09 06:10:43;;;;;;;9.8;8.8;;;;;;;10.22;100;95013.65;;;;
2019/09/09 06:11:45;;;;;;;9.8;8.8;;;;;;;10.22;100;95013.65;;;;
2019/09/09 06:12:46;;;;;;;9.8;8.8;;;;;;;10.22;100;95013.65;;;;
2019/09/09 06:13:47;;;;;;;10.9;9;;;;;;;10.3;100;95020.01;;;;
2019/09/09 06:14:48;;;;;;;10.9;9;;;;;;;10.3;100;95020.01;;;;
2019/09/09 06:15:49;;;;;;;10.9;9;;;;;;;10.3;100;95020.01;;;;
2019/09/09 06:16:51;;;;;;;10.9;9;;;;;;;10.3;100;95020.01;;;;
2019/09/09 06:17:52;;;;;;;10.9;9;;;;;;;10.3;100;95020.01;;;;
2019/09/09 06:18:53;;;;;;;10.9;9;;;;;;;10.3;100;95020.01;;;;